Time,TemperatureF,DewpointF,PressureIn,WindDirection,WindDirectionDegrees,WindSpeedMPH,WindSpeedGustMPH,Humidity,HourlyPrecipIn,Conditions,Clouds,dailyrainin,SoftwareType,DateUTC
2013-02-14 00:01:00,27.0,23.0,-100.00,ENE,68,1.0,2.0,86,0.00,,,-99.99,,2013-02-14 07:01:00,
2013-02-14 00:11:00,27.0,23.0,-100.00,ENE,68,0.0,1.0,86,0.00,,,-99.99,,2013-02-14 07:11:00,
2013-02-14 00:21:00,27.0,23.0,-100.00,ENE,68,0.0,1.0,86,0.00,,,-99.99,,2013-02-14 07:21:00,
2013-02-14 00:31:00,27.0,23.0,-100.00,ENE,68,0.0,1.0,86,0.00,,,-99.99,,2013-02-14 07:31:00,
2013-02-14 00:41:00,27.0,23.0,-100.00,ENE,66,0.0,1.0,85,0.00,,,-99.99,,2013-02-14 07:41:00,
2013-02-14 00:52:00,27.0,23.0,-100.00,North,356,0.0,1.0,86,0.00,,,-99.99,,2013-02-14 07:52:00,
2013-02-14 01:01:00,27.0,23.0,-100.00,North,356,0.0,1.0,86,0.00,,,-99.99,,2013-02-14 08:01:00,
2013-02-14 01:11:00,26.0,23.0,-100.00,East,89,1.0,1.0,87,0.00,,,-99.99,,2013-02-14 08:11:00,
2013-02-14 01:21:00,26.0,23.0,-100.00,East,89,1.0,1.0,87,0.00,,,-99.99,,2013-02-14 08:21:00,
2013-02-14 01:31:00,26.0,23.0,-100.00,East,89,1.0,1.0,87,0.00,,,-99.99,,2013-02-14 08:31:00,
2013-02-14 01:43:00,26.0,23.0,-100.00,East,92,2.0,2.0,87,0.00,,,-99.99,,2013-02-14 08:43:00,
2013-02-14 01:52:00,27.0,23.0,-100.00,East,86,1.0,2.0,85,0.00,,,-99.99,,2013-02-14 08:52:00,
2013-02-14 02:01:00,27.0,23.0,-100.00,East,86,1.0,2.0,85,0.00,,,-99.99,,2013-02-14 09:01:00,
2013-02-14 02:11:00,28.0,23.0,-100.00,East,83,1.0,2.0,83,0.00,,,-99.99,,2013-02-14 09:11:00,
2013-02-14 02:21:00,28.0,23.0,-100.00,ESE,106,1.0,2.0,82,0.00,,,-99.99,,2013-02-14 09:21:00,
2013-02-14 02:31:00,28.0,23.0,-100.00,ESE,106,1.0,2.0,82,0.00,,,-99.99,,2013-02-14 09:31:00,
2013-02-14 02:41:00,28.0,23.0,-100.00,ESE,103,2.0,2.0,82,0.00,,,-99.99,,2013-02-14 09:41:00,
2013-02-14 02:52:00,28.0,23.0,-100.00,ESE,106,1.0,2.0,82,0.00,,,-99.99,,2013-02-14 09:52:00,
2013-02-14 03:01:00,28.0,23.0,-100.00,ESE,106,1.0,2.0,82,0.00,,,-99.99,,2013-02-14 10:01:00,
2013-02-14 03:11:00,28.0,23.0,-100.00,SE,134,0.0,3.0,82,0.00,,,-99.99,,2013-02-14 10:11:00,
2013-02-14 03:21:00,28.0,23.0,-100.00,SSW,203,0.0,0.0,83,0.00,,,-99.99,,2013-02-14 10:21:00,
2013-02-14 03:31:00,28.0,23.0,-100.00,SSW,203,0.0,0.0,83,0.00,,,-99.99,,2013-02-14 10:31:00,
2013-02-14 03:41:00,27.0,23.0,-100.00,ENE,68,1.0,1.0,84,0.00,,,-99.99,,2013-02-14 10:41:00,
2013-02-14 03:52:00,27.0,23.0,-100.00,ENE,68,1.0,1.0,84,0.00,,,-99.99,,2013-02-14 10:52:00,
2013-02-14 04:01:00,27.0,23.0,-100.00,ENE,68,1.0,1.0,84,0.00,,,-99.99,,2013-02-14 11:01:00,
2013-02-14 04:11:00,27.0,23.0,-100.00,ENE,78,0.0,2.0,83,0.00,,,-99.99,,2013-02-14 11:11:00,
2013-02-14 04:21:00,26.0,22.0,-100.00,ENE,75,1.0,2.0,84,0.00,,,-99.99,,2013-02-14 11:21:00,
2013-02-14 04:31:00,26.0,22.0,-100.00,ENE,75,1.0,2.0,84,0.00,,,-99.99,,2013-02-14 11:31:00,
2013-02-14 04:42:00,26.0,22.0,-100.00,ENE,73,1.0,2.0,84,0.00,,,-99.99,,2013-02-14 11:42:00,
2013-02-14 04:52:00,26.0,22.0,-100.00,ENE,73,1.0,2.0,84,0.00,,,-99.99,,2013-02-14 11:52:00,
2013-02-14 05:01:00,26.0,22.0,-100.00,ENE,73,1.0,2.0,84,0.00,,,-99.99,,2013-02-14 12:01:00,
2013-02-14 05:11:00,25.0,22.0,-100.00,ENE,69,1.0,1.0,86,0.00,,,-99.99,,2013-02-14 12:11:00,
2013-02-14 05:22:00,25.0,22.0,-100.00,ENE,76,1.0,2.0,86,0.00,,,-99.99,,2013-02-14 12:22:00,
2013-02-14 05:32:00,25.0,22.0,-100.00,ENE,76,1.0,2.0,86,0.00,,,-99.99,,2013-02-14 12:32:00,
2013-02-14 05:41:00,25.0,22.0,-100.00,ENE,61,1.0,2.0,87,0.00,,,-99.99,,2013-02-14 12:41:00,
2013-02-14 05:53:00,26.0,22.0,-100.00,East,82,0.0,1.0,86,0.00,,,-99.99,,2013-02-14 12:53:00,
2013-02-14 06:01:00,26.0,22.0,-100.00,East,82,0.0,1.0,86,0.00,,,-99.99,,2013-02-14 13:01:00,
2013-02-14 06:11:00,26.0,22.0,-100.00,East,82,0.0,1.0,86,0.00,,,-99.99,,2013-02-14 13:11:00,
2013-02-14 06:21:00,24.0,21.0,-100.00,ESE,110,0.0,0.0,88,0.00,,,-99.99,,2013-02-14 13:21:00,
2013-02-14 06:31:00,24.0,21.0,-100.00,ESE,110,0.0,0.0,88,0.00,,,-99.99,,2013-02-14 13:31:00,
2013-02-14 06:42:00,24.0,21.0,-100.00,East,97,0.0,0.0,89,0.00,,,-99.99,,2013-02-14 13:42:00,
2013-02-14 06:51:00,23.0,20.0,-100.00,East,93,0.0,1.0,90,0.00,,,-99.99,,2013-02-14 13:51:00,
2013-02-14 07:01:00,23.0,20.0,-100.00,East,93,0.0,1.0,90,0.00,,,-99.99,,2013-02-14 14:01:00,
2013-02-14 07:11:00,23.0,20.0,-100.00,East,93,0.0,1.0,90,0.00,,,-99.99,,2013-02-14 14:11:00,
2013-02-14 07:21:00,23.0,21.0,-100.00,East,85,1.0,2.0,91,0.00,,,-99.99,,2013-02-14 14:21:00,
2013-02-14 07:31:00,23.0,21.0,-100.00,East,85,1.0,2.0,91,0.00,,,-99.99,,2013-02-14 14:31:00,
2013-02-14 07:42:00,22.0,20.0,-100.00,East,86,2.0,4.0,91,0.00,,,-99.99,,2013-02-14 14:42:00,
2013-02-14 07:52:00,23.0,21.0,-100.00,East,92,1.0,2.0,92,0.00,,,-99.99,,2013-02-14 14:52:00,
2013-02-14 08:01:00,23.0,21.0,-100.00,East,92,1.0,2.0,92,0.00,,,-99.99,,2013-02-14 15:01:00,
2013-02-14 08:11:00,22.0,20.0,-100.00,East,93,2.0,4.0,91,0.00,,,-99.99,,2013-02-14 15:11:00,
2013-02-14 08:21:00,22.0,20.0,-100.00,East,93,2.0,4.0,91,0.00,,,-99.99,,2013-02-14 15:21:00,
2013-02-14 08:31:00,22.0,20.0,-100.00,East,93,2.0,4.0,91,0.00,,,-99.99,,2013-02-14 15:31:00,
2013-02-14 08:41:00,22.0,20.0,-100.00,East,90,2.0,3.0,93,0.00,,,-99.99,,2013-02-14 15:41:00,
2013-02-14 08:52:00,22.0,20.0,-100.00,East,83,1.0,2.0,93,0.00,,,-99.99,,2013-02-14 15:52:00,
2013-02-14 09:01:00,22.0,20.0,-100.00,East,83,1.0,2.0,93,0.00,,,-99.99,,2013-02-14 16:01:00,
2013-02-14 09:11:00,22.0,20.0,-100.00,East,90,1.0,1.0,92,0.00,,,-99.99,,2013-02-14 16:11:00,
2013-02-14 09:21:00,22.0,20.0,-100.00,East,90,1.0,1.0,92,0.00,,,-99.99,,2013-02-14 16:21:00,
2013-02-14 09:31:00,22.0,20.0,-100.00,East,90,1.0,1.0,92,0.00,,,-99.99,,2013-02-14 16:31:00,
2013-02-14 09:41:00,23.0,21.0,-100.00,ENE,73,1.0,2.0,92,0.00,,,-99.99,,2013-02-14 16:41:00,
2013-02-14 09:52:00,25.0,23.0,-100.00,ESE,104,2.0,3.0,90,0.00,,,-99.99,,2013-02-14 16:52:00,
2013-02-14 10:01:00,25.0,23.0,-100.00,ESE,104,2.0,3.0,90,0.00,,,-99.99,,2013-02-14 17:01:00,
2013-02-14 10:11:00,27.0,24.0,-100.00,North,357,1.0,3.0,88,0.00,,,-99.99,,2013-02-14 17:11:00,
2013-02-14 10:21:00,26.0,22.0,-100.00,West,264,2.0,3.0,85,0.00,,,-99.99,,2013-02-14 17:21:00,
2013-02-14 10:31:00,26.0,22.0,-100.00,West,264,2.0,3.0,85,0.00,,,-99.99,,2013-02-14 17:31:00,
2013-02-14 10:41:00,26.0,22.0,-100.00,West,264,2.0,3.0,85,0.00,,,-99.99,,2013-02-14 17:41:00,
2013-02-14 10:52:00,29.0,24.0,-100.00,West,275,0.0,1.0,82,0.00,,,-99.99,,2013-02-14 17:52:00,
2013-02-14 11:01:00,29.0,24.0,-100.00,West,275,0.0,1.0,82,0.00,,,-99.99,,2013-02-14 18:01:00,
2013-02-14 11:11:00,27.0,22.0,-100.00,WNW,301,4.0,5.0,78,0.00,,,-99.99,,2013-02-14 18:11:00,
2013-02-14 11:22:00,27.0,22.0,-100.00,NW,319,2.0,3.0,82,0.00,,,-99.99,,2013-02-14 18:22:00,
2013-02-14 11:31:00,27.0,22.0,-100.00,NW,319,2.0,3.0,82,0.00,,,-99.99,,2013-02-14 18:31:00,
2013-02-14 11:41:00,28.0,22.0,-100.00,NW,312,3.0,4.0,79,0.00,,,-99.99,,2013-02-14 18:41:00,
2013-02-14 11:52:00,28.0,22.0,-100.00,NW,309,2.0,4.0,79,0.00,,,-99.99,,2013-02-14 18:52:00,
2013-02-14 12:01:00,28.0,22.0,-100.00,NW,309,2.0,4.0,79,0.00,,,-99.99,,2013-02-14 19:01:00,
2013-02-14 12:11:00,29.0,22.0,-100.00,NW,316,4.0,6.0,75,0.00,,,-99.99,,2013-02-14 19:11:00,
2013-02-14 12:21:00,29.0,21.0,-100.00,NW,323,4.0,5.0,72,0.00,,,-99.99,,2013-02-14 19:21:00,
2013-02-14 12:31:00,29.0,21.0,-100.00,NW,323,4.0,5.0,72,0.00,,,-99.99,,2013-02-14 19:31:00,
2013-02-14 12:41:00,29.0,21.0,-100.00,NW,323,4.0,5.0,72,0.00,,,-99.99,,2013-02-14 19:41:00,
2013-02-14 12:52:00,31.0,20.0,-100.00,NNW,328,5.0,6.0,64,0.00,,,-99.99,,2013-02-14 19:52:00,
2013-02-14 13:01:00,31.0,20.0,-100.00,NNW,328,5.0,6.0,64,0.00,,,-99.99,,2013-02-14 20:01:00,
2013-02-14 13:11:00,31.0,20.0,-100.00,NW,316,4.0,6.0,63,0.00,,,-99.99,,2013-02-14 20:11:00,
2013-02-14 13:21:00,31.0,20.0,-100.00,NW,316,4.0,6.0,63,0.00,,,-99.99,,2013-02-14 20:21:00,
2013-02-14 13:31:00,31.0,20.0,-100.00,NW,316,4.0,6.0,63,0.00,,,-99.99,,2013-02-14 20:31:00,
2013-02-14 13:41:00,32.0,20.0,-100.00,NW,306,4.0,6.0,60,0.00,,,-99.99,,2013-02-14 20:41:00,
2013-02-14 13:52:00,33.0,19.0,-100.00,NW,322,4.0,6.0,56,0.00,,,-99.99,,2013-02-14 20:52:00,
2013-02-14 14:02:00,33.0,19.0,-100.00,NW,322,4.0,6.0,56,0.00,,,-99.99,,2013-02-14 21:02:00,
2013-02-14 14:21:00,35.0,18.0,-100.00,NW,320,3.0,5.0,49,0.00,,,-99.99,,2013-02-14 21:21:00,
2013-02-14 14:31:00,35.0,18.0,-100.00,NW,320,3.0,5.0,49,0.00,,,-99.99,,2013-02-14 21:31:00,
2013-02-14 14:42:00,35.0,16.0,-100.00,NW,313,3.0,5.0,45,0.00,,,-99.99,,2013-02-14 21:42:00,
2013-02-14 14:52:00,36.0,16.0,-100.00,WNW,294,2.0,4.0,44,0.00,,,-99.99,,2013-02-14 21:52:00,
2013-02-14 15:01:00,36.0,16.0,-100.00,WNW,294,2.0,4.0,44,0.00,,,-99.99,,2013-02-14 22:01:00,
2013-02-14 15:11:00,35.0,17.0,-100.00,NW,304,4.0,5.0,46,0.00,,,-99.99,,2013-02-14 22:11:00,
2013-02-14 15:21:00,35.0,16.0,-100.00,NW,316,4.0,5.0,45,0.00,,,-99.99,,2013-02-14 22:21:00,
2013-02-14 15:31:00,35.0,16.0,-100.00,NW,316,4.0,5.0,45,0.00,,,-99.99,,2013-02-14 22:31:00,
2013-02-14 15:41:00,36.0,17.0,-100.00,NW,312,5.0,7.0,46,0.00,,,-99.99,,2013-02-14 22:41:00,
2013-02-14 15:52:00,35.0,16.0,-100.00,NW,309,6.0,7.0,46,0.00,,,-99.99,,2013-02-14 22:52:00,
2013-02-14 16:01:00,35.0,16.0,-100.00,NW,309,6.0,7.0,46,0.00,,,-99.99,,2013-02-14 23:01:00,
2013-02-14 16:11:00,35.0,18.0,-100.00,NW,313,5.0,7.0,49,0.00,,,-99.99,,2013-02-14 23:11:00,
2013-02-14 16:21:00,35.0,18.0,-100.00,NW,313,5.0,7.0,49,0.00,,,-99.99,,2013-02-14 23:21:00,
2013-02-14 16:31:00,35.0,18.0,-100.00,NW,313,5.0,7.0,49,0.00,,,-99.99,,2013-02-14 23:31:00,
2013-02-14 16:41:00,36.0,20.0,-100.00,WNW,298,2.0,3.0,54,0.00,,,-99.99,,2013-02-14 23:41:00,
2013-02-14 16:52:00,35.0,21.0,-100.00,SW,230,1.0,3.0,56,0.00,,,-99.99,,2013-02-14 23:52:00,
2013-02-14 17:01:00,35.0,21.0,-100.00,SW,230,1.0,3.0,56,0.00,,,-99.99,,2013-02-15 00:01:00,
2013-02-14 17:11:00,36.0,22.0,-100.00,WNW,299,1.0,2.0,57,0.00,,,-99.99,,2013-02-15 00:11:00,
2013-02-14 17:21:00,36.0,22.0,-100.00,WNW,299,1.0,2.0,57,0.00,,,-99.99,,2013-02-15 00:21:00,
2013-02-14 17:31:00,36.0,22.0,-100.00,WNW,299,1.0,2.0,57,0.00,,,-99.99,,2013-02-15 00:31:00,
2013-02-14 17:41:00,35.0,21.0,-100.00,West,272,1.0,3.0,56,0.00,,,-99.99,,2013-02-15 00:41:00,
2013-02-14 17:52:00,35.0,21.0,-100.00,West,265,0.0,1.0,56,0.00,,,-99.99,,2013-02-15 00:52:00,
2013-02-14 18:01:00,35.0,21.0,-100.00,West,265,0.0,1.0,56,0.00,,,-99.99,,2013-02-15 01:01:00,
2013-02-14 18:11:00,34.0,21.0,-100.00,ESE,107,0.0,1.0,58,0.00,,,-99.99,,2013-02-15 01:11:00,
2013-02-14 18:21:00,33.0,21.0,-100.00,ESE,123,0.0,0.0,62,0.00,,,-99.99,,2013-02-15 01:21:00,
2013-02-14 18:31:00,33.0,21.0,-100.00,ESE,123,0.0,0.0,62,0.00,,,-99.99,,2013-02-15 01:31:00,
2013-02-14 18:41:00,33.0,21.0,-100.00,ESE,123,0.0,0.0,62,0.00,,,-99.99,,2013-02-15 01:41:00,
2013-02-14 18:52:00,32.0,21.0,-100.00,ESE,120,0.0,1.0,65,0.00,,,-99.99,,2013-02-15 01:52:00,
2013-02-14 19:01:00,32.0,21.0,-100.00,ESE,120,0.0,1.0,65,0.00,,,-99.99,,2013-02-15 02:01:00,
2013-02-14 19:11:00,31.0,21.0,-100.00,West,272,0.0,0.0,66,0.00,,,-99.99,,2013-02-15 02:11:00,
2013-02-14 19:21:00,31.0,21.0,-100.00,East,97,1.0,2.0,65,0.00,,,-99.99,,2013-02-15 02:21:00,
2013-02-14 19:31:00,31.0,21.0,-100.00,East,97,1.0,2.0,65,0.00,,,-99.99,,2013-02-15 02:31:00,
2013-02-14 19:41:00,31.0,21.0,-100.00,ESE,107,0.0,2.0,66,0.00,,,-99.99,,2013-02-15 02:41:00,
2013-02-14 19:52:00,31.0,21.0,-100.00,ESE,106,1.0,2.0,67,0.00,,,-99.99,,2013-02-15 02:52:00,
2013-02-14 20:01:00,31.0,21.0,-100.00,ESE,106,1.0,2.0,67,0.00,,,-99.99,,2013-02-15 03:01:00,
2013-02-14 20:11:00,31.0,21.0,-100.00,East,79,0.0,1.0,66,0.00,,,-99.99,,2013-02-15 03:11:00,
2013-02-14 20:21:00,31.0,21.0,-100.00,East,85,0.0,0.0,66,0.00,,,-99.99,,2013-02-15 03:21:00,
2013-02-14 20:31:00,31.0,21.0,-100.00,East,85,0.0,0.0,66,0.00,,,-99.99,,2013-02-15 03:31:00,
2013-02-14 20:41:00,31.0,22.0,-100.00,East,88,1.0,1.0,69,0.00,,,-99.99,,2013-02-15 03:41:00,
2013-02-14 20:52:00,31.0,22.0,-100.00,East,97,1.0,2.0,69,0.00,,,-99.99,,2013-02-15 03:52:00,
2013-02-14 21:01:00,31.0,22.0,-100.00,East,97,1.0,2.0,69,0.00,,,-99.99,,2013-02-15 04:01:00,
2013-02-14 21:11:00,31.0,23.0,-100.00,ESE,106,1.0,2.0,70,0.00,,,-99.99,,2013-02-15 04:11:00,
2013-02-14 21:21:00,31.0,22.0,-100.00,East,97,0.0,1.0,69,0.00,,,-99.99,,2013-02-15 04:21:00,
2013-02-14 21:31:00,31.0,22.0,-100.00,East,97,0.0,1.0,69,0.00,,,-99.99,,2013-02-15 04:31:00,
2013-02-14 21:41:00,31.0,23.0,-100.00,ESE,102,0.0,1.0,71,0.00,,,-99.99,,2013-02-15 04:41:00,
2013-02-14 21:52:00,31.0,23.0,-100.00,ESE,102,0.0,1.0,71,0.00,,,-99.99,,2013-02-15 04:52:00,
2013-02-14 22:01:00,31.0,23.0,-100.00,ESE,102,0.0,1.0,71,0.00,,,-99.99,,2013-02-15 05:01:00,
2013-02-14 22:11:00,31.0,23.0,-100.00,East,92,0.0,1.0,73,0.00,,,-99.99,,2013-02-15 05:11:00,
2013-02-14 22:22:00,30.0,23.0,-100.00,ENE,73,0.0,1.0,74,0.00,,,-99.99,,2013-02-15 05:22:00,
2013-02-14 22:32:00,30.0,23.0,-100.00,ENE,73,0.0,1.0,74,0.00,,,-99.99,,2013-02-15 05:32:00,
2013-02-14 22:41:00,29.0,22.0,-100.00,ENE,78,1.0,2.0,75,0.00,,,-99.99,,2013-02-15 05:41:00,
2013-02-14 22:52:00,29.0,22.0,-100.00,NNW,332,0.0,1.0,75,0.00,,,-99.99,,2013-02-15 05:52:00,
2013-02-14 23:01:00,29.0,22.0,-100.00,NNW,332,0.0,1.0,75,0.00,,,-99.99,,2013-02-15 06:01:00,
2013-02-14 23:11:00,29.0,22.0,-100.00,NNW,332,0.0,1.0,75,0.00,,,-99.99,,2013-02-15 06:11:00,
2013-02-14 23:21:00,27.0,22.0,-100.00,ENE,72,1.0,2.0,78,0.00,,,-99.99,,2013-02-15 06:21:00,
2013-02-14 23:31:00,27.0,22.0,-100.00,ENE,72,1.0,2.0,78,0.00,,,-99.99,,2013-02-15 06:31:00,
2013-02-14 23:42:00,27.0,22.0,-100.00,East,90,1.0,2.0,78,0.00,,,-99.99,,2013-02-15 06:42:00,
2013-02-14 23:52:00,27.0,22.0,-100.00,East,99,2.0,3.0,80,0.00,,,-99.99,,2013-02-15 06:52:00,